sensor_id;sensor_type;location;lat;lon;timestamp;pressure;altitude;pressure_sealevel;temperature;humidity
23118;BME280;11728;50.624;6.014;2023-06-26T00:05:01;98098.44;;;23.89;50.93
23118;BME280;11728;50.624;6.014;2023-06-26T00:10:22;98092.78;;;23.92;50.39
23118;BME280;11728;50.624;6.014;2023-06-26T00:15:43;98088.75;;;23.97;49.41
23118;BME280;11728;50.624;6.014;2023-06-26T00:21:04;98086.53;;;24.02;49.51
23118;BME280;11728;50.624;6.014;2023-06-26T00:26:25;98093.16;;;23.98;49.18
23118;BME280;11728;50.624;6.014;2023-06-26T00:31:45;98094.28;;;23.96;49.61
23118;BME280;11728;50.624;6.014;2023-06-26T00:37:06;98092.16;;;23.88;50.78
23118;BME280;11728;50.624;6.014;2023-06-26T00:42:27;98090.19;;;23.79;50.82
23118;BME280;11728;50.624;6.014;2023-06-26T00:47:48;98104.38;;;23.70;51.44
23118;BME280;11728;50.624;6.014;2023-06-26T00:53:10;98099.44;;;23.64;50.95
23118;BME280;11728;50.624;6.014;2023-06-26T00:58:31;98103.31;;;23.49;51.48
23118;BME280;11728;50.624;6.014;2023-06-26T01:03:53;98113.97;;;23.40;51.75
23118;BME280;11728;50.624;6.014;2023-06-26T01:09:23;98112.59;;;23.34;51.96
23118;BME280;11728;50.624;6.014;2023-06-26T01:14:44;98118.69;;;23.26;51.89
23118;BME280;11728;50.624;6.014;2023-06-26T01:20:06;98120.69;;;23.11;52.16
23118;BME280;11728;50.624;6.014;2023-06-26T01:31:27;98120.47;;;22.78;53.08
23118;BME280;11728;50.624;6.014;2023-06-26T01:36:49;98123.97;;;22.68;54.12
23118;BME280;11728;50.624;6.014;2023-06-26T01:42:10;98129.72;;;22.63;53.59
23118;BME280;11728;50.624;6.014;2023-06-26T01:47:33;98145.50;;;22.68;53.89
23118;BME280;11728;50.624;6.014;2023-06-26T01:53:04;98144.31;;;22.72;53.81
23118;BME280;11728;50.624;6.014;2023-06-26T01:58:28;98144.31;;;22.72;53.90
23118;BME280;11728;50.624;6.014;2023-06-26T02:03:50;98153.03;;;22.75;54.16
23118;BME280;11728;50.624;6.014;2023-06-26T02:09:11;98166.38;;;22.77;54.56
23118;BME280;11728;50.624;6.014;2023-06-26T02:14:31;98159.28;;;22.76;54.97
23118;BME280;11728;50.624;6.014;2023-06-26T02:19:52;98167.16;;;22.79;55.77
23118;BME280;11728;50.624;6.014;2023-06-26T02:25:14;98168.09;;;22.78;56.11
23118;BME280;11728;50.624;6.014;2023-06-26T02:30:35;98180.09;;;22.74;56.35
23118;BME280;11728;50.624;6.014;2023-06-26T02:35:55;98178.50;;;22.59;57.70
23118;BME280;11728;50.624;6.014;2023-06-26T02:41:16;98190.78;;;22.50;58.28
23118;BME280;11728;50.624;6.014;2023-06-26T02:46:37;98192.06;;;22.45;58.45
23118;BME280;11728;50.624;6.014;2023-06-26T02:51:57;98191.03;;;22.35;59.00
23118;BME280;11728;50.624;6.014;2023-06-26T02:57:18;98194.88;;;22.31;59.55
23118;BME280;11728;50.624;6.014;2023-06-26T03:02:39;98195.09;;;22.28;59.48
23118;BME280;11728;50.624;6.014;2023-06-26T03:07:59;98192.72;;;22.24;59.08
23118;BME280;11728;50.624;6.014;2023-06-26T03:13:20;98201.25;;;22.18;59.27
23118;BME280;11728;50.624;6.014;2023-06-26T03:18:41;98207.38;;;22.07;59.33
23118;BME280;11728;50.624;6.014;2023-06-26T03:24:02;98214.03;;;22.02;58.96
23118;BME280;11728;50.624;6.014;2023-06-26T03:29:22;98211.97;;;21.93;58.97
23118;BME280;11728;50.624;6.014;2023-06-26T03:34:43;98211.44;;;21.88;58.96
23118;BME280;11728;50.624;6.014;2023-06-26T03:40:04;98209.41;;;21.91;58.65
23118;BME280;11728;50.624;6.014;2023-06-26T03:45:25;98218.75;;;21.98;58.30
23118;BME280;11728;50.624;6.014;2023-06-26T03:50:46;98232.75;;;22.03;58.26
23118;BME280;11728;50.624;6.014;2023-06-26T03:56:06;98237.03;;;22.06;58.01
23118;BME280;11728;50.624;6.014;2023-06-26T04:01:27;98226.59;;;22.01;58.36
23118;BME280;11728;50.624;6.014;2023-06-26T04:06:48;98241.78;;;22.02;58.65
23118;BME280;11728;50.624;6.014;2023-06-26T04:12:08;98246.84;;;22.07;58.28
23118;BME280;11728;50.624;6.014;2023-06-26T04:17:29;98246.53;;;22.11;58.52
23118;BME280;11728;50.624;6.014;2023-06-26T04:22:50;98244.28;;;22.18;58.47
23118;BME280;11728;50.624;6.014;2023-06-26T04:28:11;98232.97;;;22.13;58.38
23118;BME280;11728;50.624;6.014;2023-06-26T04:33:32;98235.97;;;22.08;58.74
23118;BME280;11728;50.624;6.014;2023-06-26T04:38:53;98242.69;;;22.15;58.45
23118;BME280;11728;50.624;6.014;2023-06-26T04:44:13;98253.09;;;22.20;58.90
23118;BME280;11728;50.624;6.014;2023-06-26T04:49:34;98256.44;;;22.23;58.57
23118;BME280;11728;50.624;6.014;2023-06-26T04:54:55;98260.31;;;22.19;59.36
23118;BME280;11728;50.624;6.014;2023-06-26T05:00:16;98262.25;;;22.17;59.37
23118;BME280;11728;50.624;6.014;2023-06-26T05:05:37;98264.88;;;22.31;59.56
23118;BME280;11728;50.624;6.014;2023-06-26T05:10:58;98269.41;;;22.55;59.06
23118;BME280;11728;50.624;6.014;2023-06-26T05:16:18;98270.31;;;22.92;58.41
23118;BME280;11728;50.624;6.014;2023-06-26T05:21:39;98279.28;;;23.05;57.90
23118;BME280;11728;50.624;6.014;2023-06-26T05:27:01;98283.59;;;23.07;58.26
23118;BME280;11728;50.624;6.014;2023-06-26T05:32:22;98297.41;;;23.03;58.22
23118;BME280;11728;50.624;6.014;2023-06-26T05:37:44;98307.47;;;23.24;57.85
23118;BME280;11728;50.624;6.014;2023-06-26T05:43:05;98320.31;;;23.21;57.66
23118;BME280;11728;50.624;6.014;2023-06-26T05:48:26;98312.38;;;23.07;58.42
23118;BME280;11728;50.624;6.014;2023-06-26T05:53:48;98306.00;;;23.20;58.04
23118;BME280;11728;50.624;6.014;2023-06-26T05:59:11;98319.59;;;23.19;58.33
23118;BME280;11728;50.624;6.014;2023-06-26T06:04:32;98323.25;;;23.18;59.08
23118;BME280;11728;50.624;6.014;2023-06-26T06:09:53;98324.00;;;22.95;59.57
23118;BME280;11728;50.624;6.014;2023-06-26T06:15:13;98324.88;;;22.70;60.38
23118;BME280;11728;50.624;6.014;2023-06-26T06:20:35;98331.44;;;22.54;60.90
23118;BME280;11728;50.624;6.014;2023-06-26T06:25:56;98345.41;;;22.34;61.68
23118;BME280;11728;50.624;6.014;2023-06-26T06:31:16;98350.69;;;22.09;62.28
23118;BME280;11728;50.624;6.014;2023-06-26T06:36:37;98356.53;;;22.16;62.79
23118;BME280;11728;50.624;6.014;2023-06-26T06:41:58;98366.31;;;22.43;62.38
23118;BME280;11728;50.624;6.014;2023-06-26T06:47:18;98373.00;;;22.50;61.52
23118;BME280;11728;50.624;6.014;2023-06-26T06:52:39;98368.72;;;22.72;61.08
23118;BME280;11728;50.624;6.014;2023-06-26T06:58:01;98381.34;;;22.84;60.99
23118;BME280;11728;50.624;6.014;2023-06-26T07:03:22;98384.56;;;22.89;60.09
23118;BME280;11728;50.624;6.014;2023-06-26T07:08:42;98387.56;;;22.85;60.04
23118;BME280;11728;50.624;6.014;2023-06-26T07:14:03;98378.22;;;23.15;58.92
23118;BME280;11728;50.624;6.014;2023-06-26T07:19:24;98389.41;;;23.46;58.30
23118;BME280;11728;50.624;6.014;2023-06-26T07:24:45;98388.28;;;23.97;57.19
23118;BME280;11728;50.624;6.014;2023-06-26T07:30:06;98387.19;;;24.91;55.09
23118;BME280;11728;50.624;6.014;2023-06-26T07:35:29;98394.38;;;25.25;52.96
23118;BME280;11728;50.624;6.014;2023-06-26T07:40:50;98405.28;;;25.02;52.71
23118;BME280;11728;50.624;6.014;2023-06-26T07:46:10;98400.44;;;25.29;53.24
23118;BME280;11728;50.624;6.014;2023-06-26T07:51:31;98420.00;;;25.76;51.60
23118;BME280;11728;50.624;6.014;2023-06-26T07:56:56;98424.03;;;26.97;48.15
23118;BME280;11728;50.624;6.014;2023-06-26T08:02:17;98442.28;;;26.33;48.36
23118;BME280;11728;50.624;6.014;2023-06-26T08:07:38;98445.03;;;26.64;47.97
23118;BME280;11728;50.624;6.014;2023-06-26T08:12:59;98455.84;;;26.95;46.71
23118;BME280;11728;50.624;6.014;2023-06-26T08:18:20;98440.38;;;27.68;44.91
23118;BME280;11728;50.624;6.014;2023-06-26T08:23:41;98439.63;;;28.73;43.68
23118;BME280;11728;50.624;6.014;2023-06-26T08:29:02;98444.50;;;29.45;41.22
23118;BME280;11728;50.624;6.014;2023-06-26T08:34:28;98452.44;;;29.65;40.61
23118;BME280;11728;50.624;6.014;2023-06-26T08:39:49;98439.06;;;30.61;39.06
23118;BME280;11728;50.624;6.014;2023-06-26T08:45:10;98442.47;;;29.83;38.24
23118;BME280;11728;50.624;6.014;2023-06-26T08:50:33;98436.97;;;30.29;37.21
23118;BME280;11728;50.624;6.014;2023-06-26T08:55:57;98428.91;;;30.27;37.22
23118;BME280;11728;50.624;6.014;2023-06-26T09:01:18;98448.75;;;29.57;38.03
23118;BME280;11728;50.624;6.014;2023-06-26T09:06:39;98444.63;;;29.43;38.02
23118;BME280;11728;50.624;6.014;2023-06-26T09:12:02;98439.50;;;29.76;37.18
23118;BME280;11728;50.624;6.014;2023-06-26T09:17:30;98445.78;;;30.40;35.60
23118;BME280;11728;50.624;6.014;2023-06-26T09:22:51;98465.81;;;30.93;34.79
23118;BME280;11728;50.624;6.014;2023-06-26T09:28:12;98453.88;;;30.05;35.79
23118;BME280;11728;50.624;6.014;2023-06-26T09:33:37;98466.69;;;29.95;36.26
23118;BME280;11728;50.624;6.014;2023-06-26T09:39:00;98467.56;;;30.49;34.59
23118;BME280;11728;50.624;6.014;2023-06-26T09:44:21;98476.66;;;30.85;33.99
23118;BME280;11728;50.624;6.014;2023-06-26T09:49:42;98467.91;;;31.33;33.49
23118;BME280;11728;50.624;6.014;2023-06-26T09:55:10;98492.19;;;31.36;32.86
23118;BME280;11728;50.624;6.014;2023-06-26T10:00:31;98486.56;;;30.05;33.79
23118;BME280;11728;50.624;6.014;2023-06-26T10:05:53;98496.22;;;30.63;34.29
23118;BME280;11728;50.624;6.014;2023-06-26T10:11:16;98489.53;;;31.44;31.92
23118;BME280;11728;50.624;6.014;2023-06-26T10:16:41;98497.72;;;31.10;33.11
23118;BME280;11728;50.624;6.014;2023-06-26T10:22:03;98504.69;;;31.22;32.37
23118;BME280;11728;50.624;6.014;2023-06-26T10:27:31;98494.50;;;30.62;33.38
23118;BME280;11728;50.624;6.014;2023-06-26T10:32:54;98490.53;;;32.11;30.81
23118;BME280;11728;50.624;6.014;2023-06-26T10:38:16;98492.84;;;31.38;30.41
23118;BME280;11728;50.624;6.014;2023-06-26T10:43:38;98495.94;;;31.35;31.42
23118;BME280;11728;50.624;6.014;2023-06-26T10:49:00;98486.78;;;32.54;30.92
23118;BME280;11728;50.624;6.014;2023-06-26T10:54:21;98502.88;;;33.14;29.28
23118;BME280;11728;50.624;6.014;2023-06-26T10:59:42;98514.56;;;32.67;29.85
23118;BME280;11728;50.624;6.014;2023-06-26T11:05:05;98513.38;;;33.58;29.96
23118;BME280;11728;50.624;6.014;2023-06-26T11:10:26;98518.34;;;32.82;30.31
23118;BME280;11728;50.624;6.014;2023-06-26T11:15:49;98512.75;;;32.16;30.77
23118;BME280;11728;50.624;6.014;2023-06-26T11:21:12;98506.50;;;33.62;28.76
23118;BME280;11728;50.624;6.014;2023-06-26T11:26:43;98516.31;;;34.35;28.03
23118;BME280;11728;50.624;6.014;2023-06-26T11:32:04;98516.00;;;34.30;27.84
23118;BME280;11728;50.624;6.014;2023-06-26T11:37:26;98529.47;;;33.61;26.62
23118;BME280;11728;50.624;6.014;2023-06-26T11:42:47;98531.00;;;34.49;26.71
23118;BME280;11728;50.624;6.014;2023-06-26T11:48:07;98518.00;;;35.20;25.10
23118;BME280;11728;50.624;6.014;2023-06-26T11:53:28;98524.31;;;35.43;24.72
23118;BME280;11728;50.624;6.014;2023-06-26T11:59:04;98525.50;;;33.24;26.98
23118;BME280;11728;50.624;6.014;2023-06-26T12:04:25;98546.41;;;32.09;28.44
23118;BME280;11728;50.624;6.014;2023-06-26T12:09:47;98547.84;;;32.03;28.54
23118;BME280;11728;50.624;6.014;2023-06-26T12:15:13;98555.34;;;33.67;26.76
23118;BME280;11728;50.624;6.014;2023-06-26T12:20:40;98552.84;;;33.08;26.63
23118;BME280;11728;50.624;6.014;2023-06-26T12:26:19;98572.00;;;32.33;27.67
23118;BME280;11728;50.624;6.014;2023-06-26T12:31:44;98569.59;;;31.27;27.86
23118;BME280;11728;50.624;6.014;2023-06-26T12:37:07;98567.34;;;31.83;28.21
23118;BME280;11728;50.624;6.014;2023-06-26T12:42:28;98567.16;;;32.53;27.64
23118;BME280;11728;50.624;6.014;2023-06-26T12:47:53;98565.34;;;31.85;28.36
23118;BME280;11728;50.624;6.014;2023-06-26T12:53:14;98566.03;;;31.87;28.23
23118;BME280;11728;50.624;6.014;2023-06-26T12:58:36;98551.28;;;31.80;28.81
23118;BME280;11728;50.624;6.014;2023-06-26T13:03:57;98553.78;;;32.91;27.70
23118;BME280;11728;50.624;6.014;2023-06-26T13:09:18;98566.44;;;32.84;27.44
23118;BME280;11728;50.624;6.014;2023-06-26T13:14:38;98582.69;;;31.07;28.49
23118;BME280;11728;50.624;6.014;2023-06-26T13:19:59;98582.97;;;30.50;29.62
23118;BME280;11728;50.624;6.014;2023-06-26T13:25:21;98578.03;;;30.27;28.82
23118;BME280;11728;50.624;6.014;2023-06-26T13:30:41;98577.06;;;30.09;29.49
23118;BME280;11728;50.624;6.014;2023-06-26T13:36:02;98574.03;;;29.38;29.73
23118;BME280;11728;50.624;6.014;2023-06-26T13:41:25;98583.16;;;28.99;30.92
23118;BME280;11728;50.624;6.014;2023-06-26T13:46:46;98590.84;;;28.94;31.48
23118;BME280;11728;50.624;6.014;2023-06-26T13:52:07;98590.47;;;29.27;32.28
23118;BME280;11728;50.624;6.014;2023-06-26T13:57:31;98582.31;;;29.46;31.02
23118;BME280;11728;50.624;6.014;2023-06-26T14:02:52;98581.00;;;29.68;29.40
23118;BME280;11728;50.624;6.014;2023-06-26T14:08:13;98596.50;;;29.68;29.73
23118;BME280;11728;50.624;6.014;2023-06-26T14:13:34;98592.78;;;29.50;29.43
23118;BME280;11728;50.624;6.014;2023-06-26T14:18:56;98582.19;;;29.57;27.86
23118;BME280;11728;50.624;6.014;2023-06-26T14:24:16;98587.16;;;29.33;28.06
23118;BME280;11728;50.624;6.014;2023-06-26T14:29:37;98588.16;;;29.32;28.20
23118;BME280;11728;50.624;6.014;2023-06-26T14:34:58;98584.91;;;29.57;28.99
23118;BME280;11728;50.624;6.014;2023-06-26T14:40:19;98582.88;;;29.11;30.51
23118;BME280;11728;50.624;6.014;2023-06-26T14:45:40;98584.16;;;29.17;30.64
23118;BME280;11728;50.624;6.014;2023-06-26T14:51:00;98580.63;;;29.45;30.70
23118;BME280;11728;50.624;6.014;2023-06-26T14:56:21;98594.03;;;29.27;31.21
23118;BME280;11728;50.624;6.014;2023-06-26T15:01:42;98602.19;;;28.99;31.11
23118;BME280;11728;50.624;6.014;2023-06-26T15:07:03;98600.50;;;28.59;31.61
23118;BME280;11728;50.624;6.014;2023-06-26T15:12:23;98597.00;;;28.17;32.44
23118;BME280;11728;50.624;6.014;2023-06-26T15:17:44;98595.63;;;28.02;32.99
23118;BME280;11728;50.624;6.014;2023-06-26T15:23:05;98589.56;;;27.90;33.78
23118;BME280;11728;50.624;6.014;2023-06-26T15:28:26;98591.19;;;27.81;33.83
23118;BME280;11728;50.624;6.014;2023-06-26T15:33:46;98589.81;;;27.87;33.89
23118;BME280;11728;50.624;6.014;2023-06-26T15:39:08;98595.03;;;27.99;33.83
23118;BME280;11728;50.624;6.014;2023-06-26T15:44:29;98598.50;;;28.01;33.27
23118;BME280;11728;50.624;6.014;2023-06-26T15:49:49;98591.59;;;27.77;32.83
23118;BME280;11728;50.624;6.014;2023-06-26T15:55:10;98594.25;;;27.88;32.96
23118;BME280;11728;50.624;6.014;2023-06-26T16:00:31;98594.09;;;27.69;33.23
23118;BME280;11728;50.624;6.014;2023-06-26T16:05:51;98601.31;;;27.59;33.28
23118;BME280;11728;50.624;6.014;2023-06-26T16:11:12;98592.09;;;27.50;34.24
23118;BME280;11728;50.624;6.014;2023-06-26T16:16:33;98598.00;;;27.55;33.37
23118;BME280;11728;50.624;6.014;2023-06-26T16:21:54;98595.56;;;27.21;33.41
23118;BME280;11728;50.624;6.014;2023-06-26T16:27:15;98586.97;;;27.16;33.69
23118;BME280;11728;50.624;6.014;2023-06-26T16:32:36;98583.25;;;27.17;33.37
23118;BME280;11728;50.624;6.014;2023-06-26T16:37:56;98587.50;;;26.88;33.32
23118;BME280;11728;50.624;6.014;2023-06-26T16:43:17;98592.13;;;26.66;34.08
23118;BME280;11728;50.624;6.014;2023-06-26T16:48:38;98585.41;;;26.49;34.33
23118;BME280;11728;50.624;6.014;2023-06-26T16:53:58;98588.59;;;26.54;34.55
23118;BME280;11728;50.624;6.014;2023-06-26T16:59:19;98582.66;;;26.60;34.63
23118;BME280;11728;50.624;6.014;2023-06-26T17:04:40;98593.50;;;26.60;34.87
23118;BME280;11728;50.624;6.014;2023-06-26T17:10:01;98586.16;;;26.41;34.50
23118;BME280;11728;50.624;6.014;2023-06-26T17:15:21;98596.94;;;26.30;36.20
23118;BME280;11728;50.624;6.014;2023-06-26T17:20:42;98589.09;;;26.48;36.19
23118;BME280;11728;50.624;6.014;2023-06-26T17:26:03;98595.97;;;26.52;35.62
23118;BME280;11728;50.624;6.014;2023-06-26T17:31:24;98602.41;;;26.41;35.88
23118;BME280;11728;50.624;6.014;2023-06-26T17:36:45;98610.63;;;26.17;35.53
23118;BME280;11728;50.624;6.014;2023-06-26T17:42:06;98613.06;;;25.87;35.98
23118;BME280;11728;50.624;6.014;2023-06-26T17:47:28;98622.72;;;25.68;36.10
23118;BME280;11728;50.624;6.014;2023-06-26T17:52:49;98633.63;;;25.56;36.18
23118;BME280;11728;50.624;6.014;2023-06-26T17:58:09;98624.81;;;25.41;36.92
23118;BME280;11728;50.624;6.014;2023-06-26T18:03:30;98629.44;;;25.28;37.11
23118;BME280;11728;50.624;6.014;2023-06-26T18:08:51;98642.94;;;25.17;37.15
23118;BME280;11728;50.624;6.014;2023-06-26T18:14:12;98649.47;;;25.02;38.12
23118;BME280;11728;50.624;6.014;2023-06-26T18:19:32;98646.69;;;24.91;38.79
23118;BME280;11728;50.624;6.014;2023-06-26T18:24:53;98658.75;;;24.98;38.76
23118;BME280;11728;50.624;6.014;2023-06-26T18:30:14;98662.44;;;24.97;38.64
23118;BME280;11728;50.624;6.014;2023-06-26T18:35:35;98665.81;;;24.88;38.69
23118;BME280;11728;50.624;6.014;2023-06-26T18:40:55;98674.09;;;24.75;38.44
23118;BME280;11728;50.624;6.014;2023-06-26T18:46:17;98672.75;;;24.44;39.05
23118;BME280;11728;50.624;6.014;2023-06-26T18:51:38;98672.84;;;24.18;39.28
23118;BME280;11728;50.624;6.014;2023-06-26T18:56:59;98670.13;;;23.93;39.77
23118;BME280;11728;50.624;6.014;2023-06-26T19:02:21;98682.81;;;23.66;40.63
23118;BME280;11728;50.624;6.014;2023-06-26T19:07:42;98684.28;;;23.45;41.21
23118;BME280;11728;50.624;6.014;2023-06-26T19:13:02;98684.00;;;23.24;41.57
23118;BME280;11728;50.624;6.014;2023-06-26T19:18:24;98699.66;;;23.05;41.89
23118;BME280;11728;50.624;6.014;2023-06-26T19:23:45;98693.53;;;22.89;42.21
23118;BME280;11728;50.624;6.014;2023-06-26T19:29:06;98695.28;;;22.76;42.76
23118;BME280;11728;50.624;6.014;2023-06-26T19:34:26;98708.00;;;22.60;43.20
23118;BME280;11728;50.624;6.014;2023-06-26T19:39:47;98708.13;;;22.45;43.27
23118;BME280;11728;50.624;6.014;2023-06-26T19:45:08;98704.59;;;22.30;43.63
23118;BME280;11728;50.624;6.014;2023-06-26T19:50:29;98704.53;;;22.16;44.20
23118;BME280;11728;50.624;6.014;2023-06-26T19:55:49;98713.19;;;22.07;44.21
23118;BME280;11728;50.624;6.014;2023-06-26T20:01:10;98711.63;;;22.03;44.28
23118;BME280;11728;50.624;6.014;2023-06-26T20:06:38;98724.31;;;22.01;44.54
23118;BME280;11728;50.624;6.014;2023-06-26T20:11:59;98721.53;;;21.89;44.56
23118;BME280;11728;50.624;6.014;2023-06-26T20:17:21;98713.50;;;21.73;nan
23118;BME280;11728;50.624;6.014;2023-06-26T20:22:41;98725.00;;;21.62;45.20
23118;BME280;11728;50.624;6.014;2023-06-26T20:28:02;98723.00;;;21.50;45.42
23118;BME280;11728;50.624;6.014;2023-06-26T20:33:23;98728.94;;;21.41;45.40
23118;BME280;11728;50.624;6.014;2023-06-26T20:38:44;98734.25;;;21.27;45.84
23118;BME280;11728;50.624;6.014;2023-06-26T20:44:05;98739.97;;;21.05;46.42
23118;BME280;11728;50.624;6.014;2023-06-26T20:49:26;98736.69;;;20.85;47.04
23118;BME280;11728;50.624;6.014;2023-06-26T20:54:47;98747.31;;;20.71;47.82
23118;BME280;11728;50.624;6.014;2023-06-26T21:00:09;98747.06;;;20.60;47.99
23118;BME280;11728;50.624;6.014;2023-06-26T21:05:30;98756.38;;;20.53;48.62
23118;BME280;11728;50.624;6.014;2023-06-26T21:10:50;98753.28;;;20.61;48.34
23118;BME280;11728;50.624;6.014;2023-06-26T21:16:11;98761.41;;;20.59;48.86
23118;BME280;11728;50.624;6.014;2023-06-26T21:21:32;98767.38;;;20.64;49.24
23118;BME280;11728;50.624;6.014;2023-06-26T21:26:53;98770.78;;;20.68;49.36
23118;BME280;11728;50.624;6.014;2023-06-26T21:32:13;98764.53;;;20.67;49.60
23118;BME280;11728;50.624;6.014;2023-06-26T21:37:34;98761.06;;;20.65;49.58
23118;BME280;11728;50.624;6.014;2023-06-26T21:42:55;98766.44;;;20.65;49.33
23118;BME280;11728;50.624;6.014;2023-06-26T21:48:15;98771.72;;;20.67;49.19
23118;BME280;11728;50.624;6.014;2023-06-26T21:53:36;98777.97;;;20.67;49.93
23118;BME280;11728;50.624;6.014;2023-06-26T21:58:57;98779.69;;;20.68;49.49
23118;BME280;11728;50.624;6.014;2023-06-26T22:04:17;98777.88;;;20.69;48.85
23118;BME280;11728;50.624;6.014;2023-06-26T22:09:38;98782.34;;;20.68;49.04
23118;BME280;11728;50.624;6.014;2023-06-26T22:14:59;98773.59;;;20.65;49.35
23118;BME280;11728;50.624;6.014;2023-06-26T22:20:20;98778.03;;;20.66;49.36
23118;BME280;11728;50.624;6.014;2023-06-26T22:25:41;98777.19;;;20.65;49.43
23118;BME280;11728;50.624;6.014;2023-06-26T22:31:02;98783.66;;;20.61;49.45
23118;BME280;11728;50.624;6.014;2023-06-26T22:36:23;98780.59;;;20.52;49.49
23118;BME280;11728;50.624;6.014;2023-06-26T22:41:46;98772.66;;;20.50;49.56
23118;BME280;11728;50.624;6.014;2023-06-26T22:47:07;98782.78;;;20.45;49.72
23118;BME280;11728;50.624;6.014;2023-06-26T22:52:27;98777.72;;;20.39;49.78
23118;BME280;11728;50.624;6.014;2023-06-26T22:57:51;98786.09;;;20.33;49.64
23118;BME280;11728;50.624;6.014;2023-06-26T23:03:12;98778.16;;;20.32;49.69
23118;BME280;11728;50.624;6.014;2023-06-26T23:08:33;98780.13;;;20.28;50.56
23118;BME280;11728;50.624;6.014;2023-06-26T23:13:55;98778.88;;;20.18;51.15
23118;BME280;11728;50.624;6.014;2023-06-26T23:19:16;98792.94;;;20.07;51.58
23118;BME280;11728;50.624;6.014;2023-06-26T23:24:37;98791.81;;;19.94;52.00
23118;BME280;11728;50.624;6.014;2023-06-26T23:29:58;98789.94;;;19.79;52.05
23118;BME280;11728;50.624;6.014;2023-06-26T23:35:19;98785.16;;;19.67;52.42
23118;BME280;11728;50.624;6.014;2023-06-26T23:40:42;98785.56;;;19.59;52.57
23118;BME280;11728;50.624;6.014;2023-06-26T23:46:04;98788.63;;;19.52;53.04
23118;BME280;11728;50.624;6.014;2023-06-26T23:51:25;98786.56;;;19.40;53.34
23118;BME280;11728;50.624;6.014;2023-06-26T23:56:46;98783.22;;;19.18;53.24
